Time;durP1;ratioP1;P1;durP2;ratioP2;P2;SDS_P1;SDS_P2;PMS_P1;PMS_P2;Temp;Humidity;BMP_temperature;BMP_pressure;BME280_temperature;BME280_humidity;BME280_pressure;Samples;Min_cycle;Max_cycle;Signal;HPM_P1;HPM_P2
2022/06/28 00:02:24;;;;;;;11.38;5.92;;;;;;;21.10;59.02;100111.92;1787647;80;21178;-80
2022/06/28 00:05:30;;;;;;;13.68;5.47;;;;;;;21.07;58.62;100103.52;1789018;80;21182;-79
2022/06/28 00:08:36;;;;;;;15.38;6.58;;;;;;;21.07;58.58;100109.08;1788953;80;21174;-80
2022/06/28 00:11:41;;;;;;;12.00;5.97;;;;;;;21.06;58.85;100109.34;1772262;80;21186;-80
2022/06/28 00:18:11;;;;;;;11.05;5.60;;;;;;;20.97;59.08;100096.94;1755200;81;21199;-80
2022/06/28 00:21:18;;;;;;;15.00;5.33;;;;;;;20.89;59.32;100098.20;1755181;81;21163;-80
2022/06/28 00:24:24;;;;;;;12.63;5.45;;;;;;;20.81;59.59;100111.10;1753746;81;21337;-79
2022/06/28 00:27:29;;;;;;;14.63;6.42;;;;;;;20.74;59.81;100115.95;1755134;80;21137;-79
2022/06/28 00:30:34;;;;;;;10.88;6.00;;;;;;;20.65;59.90;100115.50;1774054;81;21186;-80
2022/06/28 00:33:41;;;;;;;13.03;5.90;;;;;;;20.59;60.10;100122.89;1736751;82;21755;-80
2022/06/28 00:36:47;;;;;;;11.43;5.67;;;;;;;20.55;60.34;100118.91;1755065;81;21181;-80
2022/06/28 00:39:54;;;;;;;17.20;6.17;;;;;;;20.50;60.59;100123.53;1737113;82;21237;-80
2022/06/28 00:42:59;;;;;;;13.30;5.53;;;;;;;20.44;61.01;100121.16;1737185;82;21153;-80
2022/06/28 00:46:05;;;;;;;10.25;5.72;;;;;;;20.38;61.39;100122.99;1737324;82;21787;-80
2022/06/28 00:49:11;;;;;;;16.10;6.30;;;;;;;20.32;61.90;100117.01;1737247;82;21185;-80
2022/06/28 00:52:17;;;;;;;13.83;5.87;;;;;;;20.26;62.43;100119.94;1737322;82;21189;-80
2022/06/28 00:55:22;;;;;;;24.05;5.90;;;;;;;20.19;62.98;100123.41;1735824;82;21261;-80
2022/06/28 00:58:29;;;;;;;17.35;5.58;;;;;;;20.09;63.57;100120.70;1772658;81;21248;-80
2022/06/28 01:01:34;;;;;;;17.82;5.65;;;;;;;20.01;64.15;100121.06;1772707;81;21339;-80
2022/06/28 01:04:40;;;;;;;16.95;6.15;;;;;;;19.98;64.50;100127.63;1788528;80;21261;-80
2022/06/28 01:07:46;;;;;;;21.57;5.83;;;;;;;19.89;64.94;100122.44;1788992;80;21185;-80
2022/06/28 01:10:53;;;;;;;12.35;5.53;;;;;;;19.82;65.27;100119.51;1782001;80;21216;-80
2022/06/28 01:14:10;;;;;;;11.50;6.17;;;;;;;19.74;65.60;100124.02;1755735;81;21284;-80
2022/06/28 01:17:35;;;;;;;15.60;6.28;;;;;;;19.66;65.67;100121.89;1749987;82;21224;-80
2022/06/28 01:20:55;;;;;;;13.47;5.50;;;;;;;19.59;65.89;100114.22;1751185;82;21247;-80
2022/06/28 01:24:01;;;;;;;11.00;6.10;;;;;;;19.53;65.99;100114.34;1750609;82;21244;-80
2022/06/28 01:27:10;;;;;;;11.95;6.45;;;;;;;19.48;66.20;100110.02;1774255;80;21227;-80
2022/06/28 01:30:16;;;;;;;14.30;6.78;;;;;;;19.44;66.15;100118.00;1755892;80;21181;-80
2022/06/28 01:33:23;;;;;;;15.95;6.58;;;;;;;19.41;66.40;100117.08;1775240;80;21232;-80
2022/06/28 01:36:30;;;;;;;14.87;6.50;;;;;;;19.37;66.82;100111.71;1772588;80;21224;-80
2022/06/28 01:39:35;;;;;;;11.83;6.50;;;;;;;19.33;67.16;100114.11;1750995;82;21189;-80
2022/06/28 01:42:41;;;;;;;15.83;7.03;;;;;;;19.27;67.33;100115.06;1752338;80;21196;-80
2022/06/28 01:45:49;;;;;;;17.75;6.42;;;;;;;19.23;67.64;100117.17;1765128;81;21209;-80
2022/06/28 01:48:58;;;;;;;12.25;6.20;;;;;;;19.18;67.78;100112.34;1749516;82;21196;-80
2022/06/28 01:52:03;;;;;;;17.10;6.28;;;;;;;19.12;67.92;100102.20;1751296;82;21784;-80
2022/06/28 01:55:08;;;;;;;12.73;6.47;;;;;;;19.08;67.92;100099.05;1750131;82;21180;-80
2022/06/28 01:58:15;;;;;;;20.23;6.55;;;;;;;19.05;68.02;100105.61;1750436;82;21263;-80
2022/06/28 02:01:20;;;;;;;25.05;6.85;;;;;;;19.21;67.81;100115.19;1751108;82;21184;-80
2022/06/28 02:04:29;;;;;;;14.50;6.05;;;;;;;19.54;66.81;100110.48;1750713;82;21228;-80
2022/06/28 02:07:31;;;;;;;16.97;6.58;;;;;;;19.99;65.40;100111.27;1750723;82;21307;-80
2022/06/28 02:10:25;;;;;;;12.05;5.75;;;;;;;20.46;63.79;100111.18;1749695;82;21180;-80
2022/06/28 02:13:11;;;;;;;16.23;5.37;;;;;;;20.84;62.47;100109.20;1750534;82;21223;-80
2022/06/28 02:16:10;;;;;;;10.28;5.15;;;;;;;21.19;61.08;100107.09;1711268;83;21288;-80
2022/06/28 02:19:15;;;;;;;11.43;5.90;;;;;;;21.58;59.48;100107.77;1731111;83;21799;-80
2022/06/28 02:22:21;;;;;;;15.53;6.22;;;;;;;21.77;58.29;100105.55;1731165;83;21229;-80
2022/06/28 02:25:27;;;;;;;11.38;6.12;;;;;;;21.93;57.83;100101.92;1731708;81;21229;-80
2022/06/28 02:28:33;;;;;;;13.28;6.17;;;;;;;22.12;57.42;100103.89;1767574;81;22585;-80
2022/06/28 02:31:39;;;;;;;13.62;6.25;;;;;;;22.36;56.62;100098.91;1767460;81;21243;-80
2022/06/28 02:41:34;;;;;;;11.40;5.37;;;;;;;23.17;53.43;100097.05;1752787;81;21209;-80
2022/06/28 02:44:40;;;;;;;14.07;6.10;;;;;;;23.43;52.16;100102.84;1773916;81;21203;-80
2022/06/28 02:47:46;;;;;;;9.95;5.45;;;;;;;23.60;50.91;100099.37;1773936;81;21715;-80
2022/06/28 02:50:52;;;;;;;15.08;5.90;;;;;;;23.77;50.34;100105.41;1774543;81;21157;-80
2022/06/28 02:53:58;;;;;;;11.15;5.60;;;;;;;23.91;49.42;100098.23;1774436;81;21185;-80
2022/06/28 02:57:04;;;;;;;12.33;5.20;;;;;;;24.10;48.74;100092.48;1772306;79;21279;-80
2022/06/28 03:00:13;;;;;;;12.58;5.20;;;;;;;24.37;47.83;100092.91;1774034;81;21776;-79
2022/06/28 03:03:19;;;;;;;13.80;5.47;;;;;;;24.73;47.14;100091.09;1774098;81;21180;-80
2022/06/28 03:06:26;;;;;;;12.30;5.33;;;;;;;25.04;46.37;100098.17;1773263;81;21843;-80
2022/06/28 03:09:32;;;;;;;13.13;5.20;;;;;;;25.30;45.36;100100.46;1774095;81;22056;-80
2022/06/28 03:12:37;;;;;;;12.30;5.42;;;;;;;25.52;45.00;100099.64;1803306;79;21185;-80
2022/06/28 03:15:42;;;;;;;14.65;5.08;;;;;;;25.60;44.10;100105.25;1805257;79;21189;-80
2022/06/28 03:18:48;;;;;;;9.48;5.00;;;;;;;25.49;43.42;100101.58;1805628;79;21747;-80
2022/06/28 03:21:54;;;;;;;15.65;5.53;;;;;;;25.32;43.94;100096.28;1805693;79;21176;-80
2022/06/28 03:25:00;;;;;;;12.98;5.20;;;;;;;25.31;44.35;100112.77;1805799;79;21177;-80
2022/06/28 03:28:06;;;;;;;10.75;4.95;;;;;;;25.39;43.94;100110.83;1784587;79;21188;-80
2022/06/28 03:31:11;;;;;;;11.68;4.70;;;;;;;25.44;43.37;100109.98;1805622;79;21192;-80
2022/06/28 03:34:16;;;;;;;9.03;4.90;;;;;;;25.49;43.10;100100.19;1805441;79;21800;-80
2022/06/28 03:37:22;;;;;;;12.82;4.80;;;;;;;25.62;42.54;100109.99;1804487;79;21197;-81
2022/06/28 03:40:22;;;;;;;16.97;5.72;;;;;;;25.74;42.69;100107.19;1804511;79;21173;-80
2022/06/28 03:43:15;;;;;;;10.08;5.00;;;;;;;25.94;42.49;100105.51;1805788;79;21229;-80
2022/06/28 03:46:21;;;;;;;;;;;;;;;26.07;42.78;100103.52;1807989;79;21228;-80
2022/06/28 03:49:28;;;;;;;15.00;5.65;;;;;;;26.16;42.58;100107.43;1764728;79;20219;-80
2022/06/28 03:52:44;;;;;;;15.08;5.80;;;;;;;26.02;42.72;100110.55;1806229;79;21724;-80
2022/06/28 03:56:01;;;;;;;14.70;5.20;;;;;;;25.87;43.13;100108.59;1804089;79;21247;-80
2022/06/28 03:59:07;;;;;;;14.10;4.95;;;;;;;25.86;43.21;100097.11;1804236;79;21211;-80
2022/06/28 04:02:12;;;;;;;12.68;5.72;;;;;;;25.87;43.17;100102.14;1805752;79;21165;-80
2022/06/28 04:05:17;;;;;;;20.72;5.17;;;;;;;25.83;43.47;100108.90;1804969;79;21822;-80
2022/06/28 04:08:25;;;;;;;13.72;5.12;;;;;;;25.87;43.05;100114.19;1804243;79;21184;-80
2022/06/28 04:11:31;;;;;;;8.73;5.08;;;;;;;25.79;42.40;100113.95;1805830;79;21181;-80
2022/06/28 04:14:37;;;;;;;7.20;4.05;;;;;;;25.67;41.90;100114.19;1805704;79;21362;-80
2022/06/28 04:17:45;;;;;;;10.93;4.10;;;;;;;25.45;41.90;100113.06;1795527;79;21216;-80
2022/06/28 04:20:53;;;;;;;14.98;5.78;;;;;;;25.28;41.83;100107.75;1764123;81;21189;-80
2022/06/28 04:24:00;;;;;;;11.45;5.30;;;;;;;25.12;41.37;100111.06;1777478;80;21243;-80
2022/06/28 04:27:07;;;;;;;9.60;4.80;;;;;;;24.97;41.49;100118.01;1794272;79;21256;-80
2022/06/28 04:30:15;;;;;;;11.40;4.37;;;;;;;24.86;42.08;100121.91;1801801;79;21173;-80
2022/06/28 04:33:22;;;;;;;13.68;4.72;;;;;;;24.79;42.09;100109.56;1774020;80;21180;-80
2022/06/28 04:36:28;;;;;;;14.93;4.67;;;;;;;24.82;42.66;100121.61;1770289;81;21251;-80
2022/06/28 04:39:35;;;;;;;11.05;4.58;;;;;;;24.82;42.20;100106.78;1778155;79;21729;-80
2022/06/28 04:42:44;;;;;;;9.80;4.25;;;;;;;24.70;42.92;100114.87;1790151;79;21275;-80
2022/06/28 04:45:51;;;;;;;17.40;5.10;;;;;;;24.68;43.13;100115.69;1785525;79;21188;-80
2022/06/28 04:48:58;;;;;;;6.80;4.15;;;;;;;24.71;42.61;100117.95;1793684;79;21173;-80
2022/06/28 04:52:10;;;;;;;10.00;4.22;;;;;;;24.79;43.09;100120.75;1779154;79;21226;-80
2022/06/28 04:55:18;;;;;;;10.75;4.80;;;;;;;24.81;42.92;100124.13;1787361;79;21169;-80
2022/06/28 04:58:25;;;;;;;10.78;4.75;;;;;;;24.85;42.57;100116.88;1794523;79;21137;-80
2022/06/28 05:01:30;;;;;;;9.80;4.97;;;;;;;24.90;43.01;100120.24;1779292;79;21207;-80
2022/06/28 05:04:38;;;;;;;12.45;4.67;;;;;;;24.99;42.87;100129.78;1800699;79;21180;-80
2022/06/28 05:07:47;;;;;;;11.03;5.25;;;;;;;25.01;42.85;100129.49;1786025;79;21795;-80
2022/06/28 05:10:54;;;;;;;12.63;4.28;;;;;;;25.09;43.03;100142.98;1797360;79;21191;-80
2022/06/28 05:14:06;;;;;;;7.67;4.17;;;;;;;25.15;41.90;100145.50;1783445;79;21244;-80
2022/06/28 05:17:12;;;;;;;14.47;4.72;;;;;;;25.09;41.34;100134.59;1790538;79;22718;-80
2022/06/28 05:20:19;;;;;;;7.97;4.70;;;;;;;25.07;42.27;100140.44;1783288;79;21789;-80
2022/06/28 05:23:24;;;;;;;10.05;4.00;;;;;;;25.13;42.19;100135.72;1784691;80;21238;-80
2022/06/28 05:26:42;;;;;;;11.10;4.70;;;;;;;25.20;41.82;100137.11;1779191;80;21173;-80
2022/06/28 05:29:50;;;;;;;14.58;4.97;;;;;;;25.30;41.46;100136.85;1777671;80;22025;-80
2022/06/28 05:32:49;;;;;;;10.58;4.45;;;;;;;25.31;41.24;100141.32;1780794;80;21177;-80
2022/06/28 05:35:54;;;;;;;16.10;4.95;;;;;;;25.37;41.03;100145.83;1794460;80;21213;-80
2022/06/28 05:39:00;;;;;;;10.88;4.47;;;;;;;25.38;41.17;100145.55;1793929;80;21264;-80
2022/06/28 05:42:05;;;;;;;13.03;5.03;;;;;;;25.40;40.83;100139.09;1772679;80;21173;-80
2022/06/28 05:45:14;;;;;;;9.00;4.10;;;;;;;25.47;40.83;100143.03;1724753;83;21576;-80
2022/06/28 05:48:21;;;;;;;10.03;4.30;;;;;;;25.63;40.58;100145.27;1722737;82;21261;-80
2022/06/28 05:51:29;;;;;;;14.47;4.42;;;;;;;25.73;40.27;100143.86;1729030;82;21232;-80
2022/06/28 05:54:36;;;;;;;13.35;4.30;;;;;;;25.80;40.32;100136.63;1706414;84;21201;-80
2022/06/28 05:57:45;;;;;;;15.40;4.62;;;;;;;25.95;40.17;100135.20;1736536;82;21248;-80
2022/06/28 06:00:51;;;;;;;13.55;4.67;;;;;;;26.08;40.20;100127.62;1695784;84;21201;-80
2022/06/28 06:03:57;;;;;;;12.23;4.53;;;;;;;26.30;38.91;100132.03;1711851;84;21244;-80
2022/06/28 06:07:03;;;;;;;11.43;4.05;;;;;;;26.43;38.81;100123.05;1710495;83;21286;-80
2022/06/28 06:10:10;;;;;;;8.03;3.98;;;;;;;26.48;38.39;100116.86;1740129;82;21743;-80
2022/06/28 06:13:17;;;;;;;11.25;3.67;;;;;;;26.56;38.29;100114.60;1724788;83;21770;-80
2022/06/28 06:16:23;;;;;;;10.45;4.20;;;;;;;26.69;37.63;100117.63;1741414;82;21197;-80
2022/06/28 06:19:29;;;;;;;9.95;3.75;;;;;;;26.77;37.87;100113.36;1724693;81;21815;-79
2022/06/28 06:22:37;;;;;;;13.98;4.37;;;;;;;26.94;37.14;100118.61;1784708;80;21221;-80
2022/06/28 06:26:01;;;;;;;6.45;3.20;;;;;;;27.07;37.66;100119.38;1778010;80;21776;-80
2022/06/28 06:29:06;;;;;;;6.87;3.05;;;;;;;27.18;34.73;100122.41;1754592;81;21744;-80
2022/06/28 06:32:13;;;;;;;29.67;3.87;;;;;;;27.36;33.11;100118.66;1773481;81;21193;-80
2022/06/28 06:35:22;;;;;;;11.57;3.27;;;;;;;27.42;33.01;100116.06;1700498;82;21224;-80
2022/06/28 06:38:28;;;;;;;5.97;2.90;;;;;;;27.47;33.08;100120.23;1770254;80;21218;-80
2022/06/28 06:41:32;;;;;;;5.95;2.58;;;;;;;27.50;33.17;100112.64;1789436;79;21243;-80
2022/06/28 06:44:38;;;;;;;8.38;3.87;;;;;;;27.56;32.17;100119.88;1726214;82;21256;-80
2022/06/28 06:47:45;;;;;;;13.58;3.83;;;;;;;27.55;33.05;100114.00;1777927;80;21205;-80
2022/06/28 06:50:51;;;;;;;10.00;3.58;;;;;;;27.51;33.29;100122.73;1800512;79;21182;-80
2022/06/28 06:53:58;;;;;;;9.23;3.37;;;;;;;27.52;33.59;100128.62;1794621;79;21428;-80
2022/06/28 06:57:05;;;;;;;8.53;3.58;;;;;;;27.62;33.59;100129.97;1802244;79;21192;-80
2022/06/28 07:00:12;;;;;;;14.18;3.52;;;;;;;27.66;33.11;100129.63;1804127;79;21185;-80
2022/06/28 07:03:19;;;;;;;9.33;2.95;;;;;;;27.70;32.81;100129.31;1805208;79;21236;-80
2022/06/28 07:06:24;;;;;;;19.12;3.55;;;;;;;27.75;32.77;100134.91;1794721;79;21197;-80
2022/06/28 07:09:30;;;;;;;15.35;3.50;;;;;;;27.76;32.88;100128.19;1764204;81;21652;-80
2022/06/28 07:12:35;;;;;;;12.78;3.52;;;;;;;27.81;33.31;100129.25;1773340;79;21184;-80
2022/06/28 07:15:41;;;;;;;6.12;2.60;;;;;;;27.91;32.16;100132.82;1792487;79;21201;-80
2022/06/28 07:18:47;;;;;;;7.15;3.08;;;;;;;28.08;32.10;100137.14;1804816;79;21193;-80
2022/06/28 07:21:55;;;;;;;9.13;3.02;;;;;;;28.21;31.40;100132.23;1772781;80;21838;-80
2022/06/28 07:25:02;;;;;;;9.48;2.83;;;;;;;28.30;31.49;100144.50;1773341;81;21267;-80
2022/06/28 07:28:10;;;;;;;6.53;2.98;;;;;;;28.33;31.35;100141.67;1773282;81;21248;-80
2022/06/28 07:31:18;;;;;;;9.85;2.90;;;;;;;28.31;31.26;100132.68;1771960;81;21442;-80
2022/06/28 07:34:24;;;;;;;12.58;2.62;;;;;;;28.26;31.56;100133.00;1779921;79;21170;-80
2022/06/28 07:37:29;;;;;;;4.58;2.30;;;;;;;28.37;30.00;100125.88;1790961;79;21224;-80
2022/06/28 07:40:34;;;;;;;8.90;2.60;;;;;;;28.47;29.55;100130.01;1796061;79;21228;-81
2022/06/28 07:43:43;;;;;;;13.83;2.10;;;;;;;28.55;30.23;100134.95;1759338;79;21255;-81
2022/06/28 07:46:50;;;;;;;6.78;2.20;;;;;;;28.64;28.88;100127.52;1794120;79;21201;-81
2022/06/28 07:53:20;;;;;;;8.70;2.47;;;;;;;28.81;29.25;100113.53;1800163;79;21271;-80
2022/06/28 07:56:34;;;;;;;5.33;2.08;;;;;;;28.86;27.74;100117.11;1789936;79;21235;-80
2022/06/28 07:59:40;;;;;;;9.80;2.10;;;;;;;28.90;27.72;100116.78;1761627;80;21229;-80
2022/06/28 08:02:47;;;;;;;8.30;1.80;;;;;;;28.90;27.72;100116.78;1753601;81;21233;-80
2022/06/28 08:05:53;;;;;;;7.00;1.60;;;;;;;28.96;26.58;100120.38;1787765;77;21205;-80
2022/06/28 08:09:01;;;;;;;10.78;1.55;;;;;;;28.94;24.55;100120.66;1792431;79;21255;-80
2022/06/28 08:12:09;;;;;;;3.62;1.50;;;;;;;29.00;25.10;100120.05;1777302;80;21212;-80
2022/06/28 08:15:15;;;;;;;6.87;1.42;;;;;;;29.00;25.10;100120.05;1773057;81;21196;-80
2022/06/28 08:18:21;;;;;;;6.75;1.30;;;;;;;29.06;25.13;100117.41;1788991;79;21732;-80
2022/06/28 08:21:28;;;;;;;5.15;1.30;;;;;;;29.13;24.48;100124.93;1801493;79;21735;-79
2022/06/28 08:24:34;;;;;;;2.87;1.27;;;;;;;29.10;23.92;100116.25;1801745;79;21192;-80
2022/06/28 08:27:40;;;;;;;3.40;1.10;;;;;;;29.05;24.59;100117.16;1802032;79;21188;-80
2022/06/28 08:30:46;;;;;;;7.47;1.25;;;;;;;29.06;24.76;100121.64;1786765;79;21250;-80
2022/06/28 08:33:55;;;;;;;6.33;1.47;;;;;;;29.15;24.47;100128.27;1779709;80;21352;-80
2022/06/28 08:37:02;;;;;;;4.55;1.30;;;;;;;29.15;24.47;100128.27;1792310;79;21162;-80
2022/06/28 08:40:08;;;;;;;3.00;1.10;;;;;;;29.13;24.13;100117.89;1778968;80;21200;-80
2022/06/28 08:43:14;;;;;;;7.60;1.20;;;;;;;29.13;23.96;100116.48;1803774;79;21215;-81
2022/06/28 08:46:19;;;;;;;5.17;1.32;;;;;;;29.17;24.82;100120.36;1780147;80;21160;-81
2022/06/28 08:49:31;;;;;;;5.58;1.50;;;;;;;29.33;24.84;100118.71;1791738;79;21227;-81
2022/06/28 08:52:36;;;;;;;6.33;1.50;;;;;;;29.33;24.84;100118.71;1773511;79;21217;-81
2022/06/28 08:55:43;;;;;;;3.50;1.00;;;;;;;29.34;24.56;100112.77;1732985;80;21181;-81
2022/06/28 08:58:51;;;;;;;3.72;1.10;;;;;;;29.28;24.93;100126.09;1776504;80;21252;-81
2022/06/28 09:01:58;;;;;;;3.67;1.15;;;;;;;29.35;24.74;100124.86;1769171;80;21228;-81
2022/06/28 09:05:11;;;;;;;5.47;1.45;;;;;;;29.40;24.41;100114.92;1767875;80;21398;-81
2022/06/28 09:08:16;;;;;;;8.20;2.08;;;;;;;29.41;24.83;100110.98;1761686;80;21237;-81
2022/06/28 09:11:22;;;;;;;6.12;1.65;;;;;;;29.44;25.20;100118.23;1786234;80;21240;-81
2022/06/28 09:14:36;;;;;;;3.20;1.57;;;;;;;29.47;25.71;100108.34;1783663;80;21184;-81
2022/06/28 09:17:42;;;;;;;5.95;1.27;;;;;;;29.50;23.98;100104.89;1776990;80;21228;-81
2022/06/28 09:20:50;;;;;;;11.38;1.85;;;;;;;29.50;23.98;100104.89;1765670;80;21200;-81
2022/06/28 09:23:58;;;;;;;5.55;1.85;;;;;;;29.43;24.58;100091.78;1775833;80;21210;-81
2022/06/28 09:27:13;;;;;;;3.27;1.20;;;;;;;29.47;25.01;100101.30;1777986;80;21186;-79
2022/06/28 09:30:21;;;;;;;3.47;1.37;;;;;;;29.54;24.67;100097.50;1805331;79;21229;-79
2022/06/28 09:33:35;;;;;;;7.67;1.32;;;;;;;29.61;24.39;100097.98;1805975;79;21169;-79
2022/06/28 09:36:45;;;;;;;4.75;1.42;;;;;;;29.59;24.32;100088.98;1788478;79;21197;-79
2022/06/28 09:39:54;;;;;;;8.65;1.60;;;;;;;29.56;24.36;100098.08;1799856;79;21193;-79
2022/06/28 09:43:15;;;;;;;4.62;1.25;;;;;;;29.55;24.54;100106.27;1797370;79;21197;-79
2022/06/28 09:46:11;;;;;;;4.75;1.42;;;;;;;29.61;23.99;100099.40;1796433;79;21190;-79
2022/06/28 09:49:03;;;;;;;3.02;1.50;;;;;;;29.67;24.16;100092.52;1795278;79;21174;-79
2022/06/28 09:51:55;;;;;;;6.08;1.30;;;;;;;29.71;24.63;100092.17;1800877;79;21180;-79
2022/06/28 09:54:43;;;;;;;2.87;1.25;;;;;;;29.72;24.20;100077.50;1768918;80;21716;-79
2022/06/28 09:57:35;;;;;;;5.08;1.50;;;;;;;29.72;24.20;100077.50;1771191;80;21236;-79
2022/06/28 10:00:24;;;;;;;1.77;1.22;;;;;;;29.81;24.42;100067.77;1760723;80;21246;-79
2022/06/28 10:03:15;;;;;;;7.15;1.55;;;;;;;29.95;24.76;100085.53;1769517;80;21166;-79
2022/06/28 10:06:23;;;;;;;5.15;1.30;;;;;;;29.97;24.03;100070.00;1767655;80;21146;-80
2022/06/28 10:09:29;;;;;;;2.35;1.15;;;;;;;30.01;24.14;100067.36;1766675;80;21185;-80
2022/06/28 10:16:06;;;;;;;6.37;1.42;;;;;;;30.05;24.21;100062.20;1773817;80;22338;-80
2022/06/28 10:19:12;;;;;;;4.10;1.35;;;;;;;30.04;24.14;100066.75;1772995;80;21169;-80
2022/06/28 10:22:19;;;;;;;5.72;1.75;;;;;;;30.02;24.01;100059.19;1788448;79;21507;-80
2022/06/28 10:25:28;;;;;;;4.15;1.50;;;;;;;30.07;24.47;100063.89;1776476;78;21811;-80
2022/06/28 10:28:34;;;;;;;5.33;1.50;;;;;;;30.11;23.14;100063.50;1765393;81;21780;-80
2022/06/28 10:31:43;;;;;;;3.27;1.27;;;;;;;30.10;23.83;100066.07;1775038;80;21261;-80
2022/06/28 10:34:56;;;;;;;;;;;;;;;30.07;23.96;100062.48;1756201;81;21189;-80
2022/06/28 10:38:22;;;;;;;5.12;1.37;;;;;;;30.05;23.99;100052.91;1776226;80;20218;-80
2022/06/28 10:41:29;;;;;;;3.92;1.17;;;;;;;30.06;23.87;100065.85;1767273;80;21256;-79
2022/06/28 10:44:39;;;;;;;7.65;1.50;;;;;;;29.98;24.32;100052.50;1776508;80;21209;-80
2022/06/28 10:47:46;;;;;;;7.90;1.60;;;;;;;29.94;24.65;100053.69;1771711;80;21237;-80
2022/06/28 10:51:08;;;;;;;5.58;1.90;;;;;;;29.96;24.76;100064.07;1699566;80;21180;-80
2022/06/28 10:54:16;;;;;;;5.75;1.70;;;;;;;29.97;25.17;100055.03;1791365;80;21657;-79
2022/06/28 10:57:34;;;;;;;7.47;2.37;;;;;;;30.00;25.49;100055.83;1794468;80;21169;-79
2022/06/28 11:00:40;;;;;;;5.28;2.30;;;;;;;30.01;25.86;100048.45;1794413;80;21744;-80
2022/06/28 11:04:30;;;;;;;6.72;2.10;;;;;;;30.11;25.72;100051.65;1792950;80;21747;-80
2022/06/28 11:07:35;;;;;;;7.50;2.02;;;;;;;30.10;25.88;100052.80;1764961;80;21152;-80
2022/06/28 11:10:41;;;;;;;4.65;1.87;;;;;;;30.05;26.18;100050.09;1747114;80;21186;-79
2022/06/28 11:13:48;;;;;;;4.20;1.87;;;;;;;30.01;26.79;100044.80;1722944;83;21184;-80
2022/06/28 11:16:54;;;;;;;6.85;1.75;;;;;;;30.03;26.35;100041.12;1740190;82;21269;-80
2022/06/28 11:20:02;;;;;;;7.95;1.80;;;;;;;30.07;26.49;100025.83;1718553;83;21514;-80
2022/06/28 11:23:07;;;;;;;3.83;2.05;;;;;;;30.15;26.83;100023.12;1745193;81;21572;-79
2022/06/28 11:29:46;;;;;;;6.80;1.65;;;;;;;30.32;26.47;100028.14;1761432;81;21139;-80
2022/06/28 11:32:53;;;;;;;10.72;1.62;;;;;;;30.37;25.89;100030.84;1799206;79;21193;-81
2022/06/28 11:36:02;;;;;;;6.12;1.80;;;;;;;30.40;26.00;100020.93;1762010;81;21804;-78
2022/06/28 11:39:24;;;;;;;4.78;1.30;;;;;;;30.39;26.02;100032.77;1766097;79;21248;-79
2022/06/28 11:42:30;;;;;;;3.85;1.30;;;;;;;30.43;26.09;100021.69;1802406;79;21838;-80
2022/06/28 11:45:40;;;;;;;5.33;1.40;;;;;;;30.46;25.85;100018.25;1784214;79;21169;-80
2022/06/28 11:48:42;;;;;;;12.33;1.52;;;;;;;30.50;26.46;100005.18;1797256;79;21196;-80
2022/06/28 11:51:40;;;;;;;7.95;1.40;;;;;;;30.57;25.48;100006.15;1790470;79;21174;-81
2022/06/28 11:54:47;;;;;;;2.45;1.15;;;;;;;30.60;25.14;100007.77;1743568;81;21182;-80
2022/06/28 11:57:52;;;;;;;6.12;1.10;;;;;;;30.64;25.39;100001.75;1729550;82;21233;-81
2022/06/28 12:01:17;;;;;;;11.78;2.05;;;;;;;30.71;25.17;100009.22;1729253;82;21153;-81
2022/06/28 12:04:30;;;;;;;5.12;1.25;;;;;;;30.73;24.85;100004.11;1765315;80;21133;-81
2022/06/28 12:07:43;;;;;;;3.58;1.37;;;;;;;30.69;24.86;99994.58;1775282;80;21170;-80
2022/06/28 12:10:50;;;;;;;4.42;0.90;;;;;;;30.64;25.00;100004.58;1762677;81;21198;-80
2022/06/28 12:13:56;;;;;;;4.20;0.90;;;;;;;30.64;25.50;100001.75;1754120;81;21201;-80
2022/06/28 12:17:08;;;;;;;2.55;1.10;;;;;;;30.66;25.71;100002.83;1761107;80;21502;-80
2022/06/28 12:20:17;;;;;;;5.95;0.90;;;;;;;30.72;25.67;100010.05;1783055;80;21178;-80
2022/06/28 12:23:23;;;;;;;3.55;0.85;;;;;;;30.71;25.46;100002.16;1774823;80;21189;-80
2022/06/28 12:26:51;;;;;;;3.52;1.15;;;;;;;30.68;26.25;99992.91;1772353;80;21229;-80
2022/06/28 12:29:57;;;;;;;3.52;1.00;;;;;;;30.73;26.79;99987.17;1799147;79;21236;-80
2022/06/28 12:33:02;;;;;;;7.72;1.45;;;;;;;30.82;25.76;99995.73;1796914;79;21251;-79
2022/06/28 12:36:22;;;;;;;6.65;1.15;;;;;;;30.78;25.87;99987.05;1767790;79;22390;-79
2022/06/28 12:39:26;;;;;;;1.85;0.80;;;;;;;30.86;25.76;100015.66;1777329;80;21684;-80
2022/06/28 12:42:19;;;;;;;4.90;1.27;;;;;;;30.80;25.38;100006.48;1759251;80;21253;-81
2022/06/28 12:45:25;;;;;;;6.45;1.02;;;;;;;30.74;26.07;100010.59;1754639;80;21173;-80
2022/06/28 12:48:32;;;;;;;7.30;1.25;;;;;;;30.74;25.89;99995.06;1785400;80;21221;-81
2022/06/28 12:51:37;;;;;;;3.20;1.00;;;;;;;30.71;25.96;99988.05;1785934;80;21229;-80
2022/06/28 12:54:43;;;;;;;6.58;0.93;;;;;;;30.74;26.22;100001.54;1785041;80;21261;-80
2022/06/28 12:57:49;;;;;;;4.42;1.40;;;;;;;30.77;26.20;99986.80;1761704;80;21262;-81
2022/06/28 13:00:41;;;;;;;3.17;1.10;;;;;;;30.79;25.94;99998.59;1789257;80;21194;-81
2022/06/28 13:03:46;;;;;;;7.58;1.17;;;;;;;30.84;25.61;99991.16;1788651;80;21244;-80
2022/06/28 13:06:47;;;;;;;1.62;0.90;;;;;;;30.83;25.97;100000.20;1789490;80;21827;-80
2022/06/28 13:09:52;;;;;;;8.00;1.27;;;;;;;30.85;25.86;100004.12;1788363;80;21491;-80
2022/06/28 13:13:00;;;;;;;4.10;0.98;;;;;;;30.82;25.86;99994.31;1788617;80;21245;-80
2022/06/28 13:16:06;;;;;;;6.28;1.10;;;;;;;30.77;25.81;99986.80;1787394;80;21186;-79
2022/06/28 13:19:13;;;;;;;6.53;1.30;;;;;;;30.77;26.25;99986.80;1765183;80;21232;-79
2022/06/28 13:22:12;;;;;;;5.15;0.90;;;;;;;30.86;26.32;99996.73;1752553;80;21196;-79
2022/06/28 13:25:05;;;;;;;4.25;1.17;;;;;;;30.89;26.42;100000.91;1777478;80;21792;-79
2022/06/28 13:27:53;;;;;;;4.20;1.20;;;;;;;30.86;26.63;99994.48;1763943;80;21229;-79
2022/06/28 13:30:58;;;;;;;2.22;1.15;;;;;;;30.84;27.13;99992.58;1707365;84;21471;-79
2022/06/28 13:34:05;;;;;;;2.75;0.80;;;;;;;30.87;27.67;99990.53;1750510;82;21233;-79
2022/06/28 13:37:10;;;;;;;3.67;1.30;;;;;;;30.93;27.68;99993.48;1757185;80;21867;-79
2022/06/28 13:40:17;;;;;;;8.63;1.40;;;;;;;30.92;28.02;99987.58;1781016;78;21173;-79
2022/06/28 13:43:37;;;;;;;3.37;1.50;;;;;;;30.93;27.80;99999.13;1789592;80;21196;-79
2022/06/28 13:46:40;;;;;;;4.08;1.42;;;;;;;30.89;27.31;99993.86;1767007;80;21141;-79
2022/06/28 13:49:49;;;;;;;6.40;1.10;;;;;;;30.83;27.79;99979.03;1789619;80;21204;-79
2022/06/28 13:52:56;;;;;;;5.60;1.50;;;;;;;30.79;28.34;99984.48;1764087;80;21181;-79
2022/06/28 13:56:03;;;;;;;4.78;1.20;;;;;;;30.84;28.09;99983.52;1752794;80;21221;-79
2022/06/28 13:59:09;;;;;;;2.15;1.32;;;;;;;30.83;28.26;99971.14;1790697;80;21252;-79
2022/06/28 14:02:08;;;;;;;7.62;1.10;;;;;;;30.82;28.45;99977.38;1744041;82;21771;-80
2022/06/28 14:05:13;;;;;;;5.53;1.47;;;;;;;30.83;29.17;99979.62;1773530;80;21203;-80
2022/06/28 14:08:20;;;;;;;2.58;1.20;;;;;;;30.88;29.47;99973.84;1791878;80;21240;-80
2022/06/28 14:11:28;;;;;;;6.33;1.80;;;;;;;30.91;29.07;99973.18;1767878;80;21343;-80
2022/06/28 14:14:33;;;;;;;3.72;1.57;;;;;;;30.93;28.97;99975.12;1789178;80;21775;-79
2022/06/28 14:17:38;;;;;;;6.08;1.57;;;;;;;30.93;28.58;99969.48;1772880;80;21236;-79
2022/06/28 14:20:44;;;;;;;5.95;1.82;;;;;;;30.90;28.74;99968.12;1769827;79;21185;-79
2022/06/28 14:23:49;;;;;;;6.85;1.70;;;;;;;30.88;28.95;99973.84;1790416;80;21173;-79
2022/06/28 14:26:55;;;;;;;8.65;1.67;;;;;;;30.88;29.06;99961.14;1736251;82;21267;-80
2022/06/28 14:30:01;;;;;;;3.98;1.82;;;;;;;30.88;29.12;99957.73;1765990;80;21294;-80
2022/06/28 14:33:06;;;;;;;6.87;1.77;;;;;;;30.87;30.00;99959.47;1745792;81;21250;-80
2022/06/28 14:36:12;;;;;;;4.03;1.40;;;;;;;30.88;30.22;99959.14;1790005;79;21189;-80
2022/06/28 14:39:18;;;;;;;8.13;2.05;;;;;;;30.89;30.30;99957.16;1789017;80;21174;-80
2022/06/28 14:42:22;;;;;;;9.23;2.12;;;;;;;30.91;30.44;99956.24;1806051;79;21168;-79
2022/06/28 14:45:28;;;;;;;6.62;1.95;;;;;;;30.90;30.32;99946.11;1803811;79;21193;-79
2022/06/28 14:48:35;;;;;;;5.97;1.90;;;;;;;30.88;30.61;99945.03;1802572;79;21763;-80